Siem Pilot — LCPF — position and weather

sailwx.info

Track history (hours):
 
Tides and Currents Weather Stations Pressure Air Temp Water Temp Dewpoint Dewpoint Depression Visibility Wind Speed Wind Dir Waves Ship Positions

Siem Pilot

Last reported at 2014-Jul-02 07:04 UTC. Time now 2014-Sep-20 01:56 UTC.
Position N 69°18' E 033°30'.
Warning: this ship's position is months out of date.

Length 88 m; draft 6 m.

Type: Cargo ship. MMSI: 257458000.

Date/timePositionNaut miles runAvg speedWind from/ knotsBaromVisibWave heightAir tempDewpointWater temp
2014-Jul-02 07:04N 69°18' E 033°30'510.3
2014-Jul-02 06:34N 69°24' E 033°32'  
2014-Jun-27 21:17N 59°27' E 005°10'6 8.9
2014-Jun-27 20:34N 59°22' E 005°18'7 6.8
2014-Jun-27 19:31N 59°15' E 005°21'1010.3
2014-Jun-27 18:33N 59°07' E 005°31'10 9.9
2014-Jun-27 17:34N 59°02' E 005°48'9 9.4
2014-Jun-27 16:34N 58°52' E 005°45'0 0.0
2014-Jun-27 15:34N 58°52' E 005°45'0 0.2
2014-Jun-27 14:32N 58°52' E 005°45'0 0.0
2014-Jun-27 13:32N 58°52' E 005°45'0 0.0
2014-Jun-27 12:32N 58°52' E 005°45'0 0.0
2014-Jun-27 11:32N 58°52' E 005°45'0 0.0
2014-Jun-27 10:32N 58°52' E 005°45'0 0.0
2014-Jun-27 09:32N 58°52' E 005°45'0 0.0
2014-Jun-27 08:32N 58°52' E 005°45'0 0.0
2014-Jun-27 07:32N 58°52' E 005°45'0 0.0
2014-Jun-27 06:32N 58°52' E 005°45'0 0.0
2014-Jun-27 05:32N 58°52' E 005°45'0 0.0
2014-Jun-27 04:32N 58°52' E 005°45'0 0.0
2014-Jun-27 03:32N 58°52' E 005°45'0 0.0
2014-Jun-27 02:32N 58°52' E 005°45'0 0.0
2014-Jun-27 01:32N 58°52' E 005°45'0 0.0
2014-Jun-27 00:32N 58°52' E 005°45'0 0.0
2014-Jun-26 23:32N 58°52' E 005°45'0 0.0
2014-Jun-26 22:32N 58°52' E 005°45'0 0.0
2014-Jun-26 21:32N 58°52' E 005°45'0 0.0
2014-Jun-26 20:32N 58°52' E 005°45'0 0.0
2014-Jun-26 19:32N 58°52' E 005°45'0 0.0
2014-Jun-26 18:32N 58°52' E 005°45'0 0.0
2014-Jun-26 17:33N 58°52' E 005°45'0 0.0
2014-Jun-26 16:34N 58°52' E 005°45'0 0.0
2014-Jun-26 15:33N 58°52' E 005°45'0 0.0
2014-Jun-26 14:34N 58°52' E 005°45'0 0.0
2014-Jun-26 13:33N 58°52' E 005°45'0 0.0
2014-Jun-26 12:33N 58°52' E 005°45'0 0.0
2014-Jun-26 11:33N 58°52' E 005°45'0 0.0
2014-Jun-26 10:33N 58°52' E 005°45'0 0.0
2014-Jun-26 09:33N 58°52' E 005°45'0 0.0
2014-Jun-26 08:34N 58°52' E 005°45'0 0.0
2014-Jun-26 07:33N 58°52' E 005°45'0 0.0
2014-Jun-26 06:34N 58°52' E 005°45'0 0.0
2014-Jun-26 05:33N 58°52' E 005°45'0 0.0
2014-Jun-26 04:33N 58°52' E 005°45'0 0.0
2014-Jun-26 03:33N 58°52' E 005°45'0 0.0
2014-Jun-26 02:33N 58°52' E 005°45'0 0.0
2014-Jun-26 01:33N 58°52' E 005°45'0 0.0
2014-Jun-26 00:34N 58°52' E 005°45'0 0.0
2014-Jun-25 23:33N 58°52' E 005°45'0 0.0
2014-Jun-25 22:33N 58°52' E 005°45'0 0.0
2014-Jun-25 21:33N 58°52' E 005°45'0 0.0
2014-Jun-25 20:33N 58°52' E 005°45'0 0.0
2014-Jun-25 19:33N 58°52' E 005°45'0 0.0
2014-Jun-25 18:33N 58°52' E 005°45'0 0.0
2014-Jun-25 17:33N 58°52' E 005°45'0 0.0
2014-Jun-25 16:33N 58°52' E 005°45'0 0.0
2014-Jun-25 15:33N 58°52' E 005°45'0 0.0
2014-Jun-25 14:33N 58°52' E 005°45'0 0.0
2014-Jun-25 13:33N 58°52' E 005°45'0 0.0
2014-Jun-25 12:33N 58°52' E 005°45'0 0.0
2014-Jun-25 11:33N 58°52' E 005°45'0 0.0
2014-Jun-25 10:33N 58°52' E 005°45'0 0.0
2014-Jun-25 09:33N 58°52' E 005°45'0 0.0
2014-Jun-25 08:33N 58°52' E 005°45'0 0.0
2014-Jun-25 07:33N 58°52' E 005°45'0 0.0
2014-Jun-25 06:33N 58°52' E 005°45'0 0.0
2014-Jun-25 05:33N 58°52' E 005°45'0 0.0
2014-Jun-25 04:33N 58°52' E 005°45'0 0.0
2014-Jun-25 03:33N 58°52' E 005°45'0 0.0
2014-Jun-25 02:33N 58°52' E 005°45'0 0.0
2014-Jun-25 01:33N 58°52' E 005°45'0 0.0
2014-Jun-25 00:34N 58°52' E 005°45'0 0.0
2014-Jun-24 23:33N 58°52' E 005°45'0 0.0
2014-Jun-24 22:33N 58°52' E 005°45'0 0.0
2014-Jun-24 21:33N 58°52' E 005°45'0 0.0
2014-Jun-24 20:33N 58°52' E 005°45'0 0.1
2014-Jun-24 19:33N 58°52' E 005°45'0 0.1
2014-Jun-24 18:33N 58°52' E 005°45'0 0.0
2014-Jun-24 17:33N 58°52' E 005°45'5 4.7
2014-Jun-24 16:33N 58°57' E 005°46'1 0.9
2014-Jun-24 15:31N 58°58' E 005°46'0 0.0
2014-Jun-24 14:31N 58°58' E 005°46'0 0.0
2014-Jun-24 13:28N 58°58' E 005°46'6 6.4
2014-Jun-24 12:33N 58°52' E 005°45'0 0.0
2014-Jun-24 11:33N 58°52' E 005°45'0 0.0
2014-Jun-24 10:33N 58°52' E 005°45'0 0.0
2014-Jun-24 09:33N 58°52' E 005°45'0 0.0
2014-Jun-24 08:33N 58°52' E 005°45'0 0.0
2014-Jun-24 07:33N 58°52' E 005°45'0 0.0
2014-Jun-24 06:33N 58°52' E 005°45'0 0.0
2014-Jun-24 05:33N 58°52' E 005°45'0 0.0
2014-Jun-24 04:33N 58°52' E 005°45'0 0.0
2014-Jun-24 03:33N 58°52' E 005°45'0 0.0
2014-Jun-24 02:33N 58°52' E 005°45'0 0.0
2014-Jun-24 01:33N 58°52' E 005°45'0 0.0
2014-Jun-24 00:33N 58°52' E 005°45'0 0.0
2014-Jun-23 23:33N 58°52' E 005°45'0 0.0
2014-Jun-23 22:33N 58°52' E 005°45'0 0.0
2014-Jun-23 21:33N 58°52' E 005°45'0 0.0
2014-Jun-23 20:33N 58°52' E 005°45'0 0.0
2014-Jun-23 19:33N 58°52' E 005°45'0 0.0
2014-Jun-23 18:33N 58°52' E 005°45'0 0.0
2014-Jun-23 17:33N 58°52' E 005°45'0 0.0
2014-Jun-23 16:33N 58°52' E 005°45'0 0.0
2014-Jun-23 15:33N 58°52' E 005°45'0 0.0
2014-Jun-23 14:33N 58°52' E 005°45'0 0.0
2014-Jun-23 12:33N 58°52' E 005°45'0 0.0
2014-Jun-23 11:33N 58°52' E 005°45'0 0.0
2014-Jun-23 10:33N 58°52' E 005°45'0 0.0
2014-Jun-23 09:33N 58°52' E 005°45'0 0.0
2014-Jun-23 08:33N 58°52' E 005°45'0 0.0
2014-Jun-23 07:33N 58°52' E 005°45'0 0.0
2014-Jun-23 06:33N 58°52' E 005°45'0 0.0
2014-Jun-23 05:33N 58°52' E 005°45'0 0.0
2014-Jun-23 04:33N 58°52' E 005°45'0 0.0
2014-Jun-23 03:33N 58°52' E 005°45'0 0.0
2014-Jun-23 02:33N 58°52' E 005°45'0 0.0
2014-Jun-23 01:33N 58°52' E 005°45'0 0.0
2014-Jun-23 00:33N 58°52' E 005°45'0 0.0
2014-Jun-22 23:33N 58°52' E 005°45'0 0.0
2014-Jun-22 22:33N 58°52' E 005°45'0 0.0
2014-Jun-22 21:33N 58°52' E 005°45'0 0.0
2014-Jun-22 20:33N 58°52' E 005°45'0 0.0
2014-Jun-22 19:33N 58°52' E 005°45'0 0.0
2014-Jun-22 18:33N 58°52' E 005°45'0 0.0
2014-Jun-22 17:33N 58°52' E 005°45'0 0.0
2014-Jun-22 16:33N 58°52' E 005°45'0 0.0
2014-Jun-22 15:33N 58°52' E 005°45'0 0.0
2014-Jun-22 14:33N 58°52' E 005°45'0 0.0
2014-Jun-22 13:33N 58°52' E 005°45'0 0.0
2014-Jun-22 12:33N 58°52' E 005°45'0 0.0
2014-Jun-22 11:33N 58°52' E 005°45'0 0.0
2014-Jun-22 10:33N 58°52' E 005°45'0 0.0
2014-Jun-22 09:33N 58°52' E 005°45'0 0.2
2014-Jun-22 08:33N 58°52' E 005°45'0 0.0
2014-Jun-22 07:33N 58°52' E 005°45'  
Track history (hours):
 
Tides and Currents Weather Stations Pressure Air Temp Water Temp Dewpoint Dewpoint Depression Visibility Wind Speed Wind Dir Waves Ship Positions

Siem Pilot

Last reported at 2014-Jul-02 07:04 UTC. Time now 2014-Sep-20 01:56 UTC.
Position N 69°18' E 033°30'.
Warning: this ship's position is months out of date.

Length 88 m; draft 6 m.

Type: Cargo ship. MMSI: 257458000.

Date/timePositionNaut miles runAvg speedWind from/ knotsBaromVisibWave heightAir tempDewpointWater temp
2014-Jul-02 07:04N 69°18' E 033°30'510.3
2014-Jul-02 06:34N 69°24' E 033°32'  
2014-Jun-27 21:17N 59°27' E 005°10'6 8.9
2014-Jun-27 20:34N 59°22' E 005°18'7 6.8
2014-Jun-27 19:31N 59°15' E 005°21'1010.3
2014-Jun-27 18:33N 59°07' E 005°31'10 9.9
2014-Jun-27 17:34N 59°02' E 005°48'9 9.4
2014-Jun-27 16:34N 58°52' E 005°45'0 0.0
2014-Jun-27 15:34N 58°52' E 005°45'0 0.2
2014-Jun-27 14:32N 58°52' E 005°45'0 0.0
2014-Jun-27 13:32N 58°52' E 005°45'0 0.0
2014-Jun-27 12:32N 58°52' E 005°45'0 0.0
2014-Jun-27 11:32N 58°52' E 005°45'0 0.0
2014-Jun-27 10:32N 58°52' E 005°45'0 0.0
2014-Jun-27 09:32N 58°52' E 005°45'0 0.0
2014-Jun-27 08:32N 58°52' E 005°45'0 0.0
2014-Jun-27 07:32N 58°52' E 005°45'0 0.0
2014-Jun-27 06:32N 58°52' E 005°45'0 0.0
2014-Jun-27 05:32N 58°52' E 005°45'0 0.0
2014-Jun-27 04:32N 58°52' E 005°45'0 0.0
2014-Jun-27 03:32N 58°52' E 005°45'0 0.0
2014-Jun-27 02:32N 58°52' E 005°45'0 0.0
2014-Jun-27 01:32N 58°52' E 005°45'0 0.0
2014-Jun-27 00:32N 58°52' E 005°45'0 0.0
2014-Jun-26 23:32N 58°52' E 005°45'0 0.0
2014-Jun-26 22:32N 58°52' E 005°45'0 0.0
2014-Jun-26 21:32N 58°52' E 005°45'0 0.0
2014-Jun-26 20:32N 58°52' E 005°45'0 0.0
2014-Jun-26 19:32N 58°52' E 005°45'0 0.0
2014-Jun-26 18:32N 58°52' E 005°45'0 0.0
2014-Jun-26 17:33N 58°52' E 005°45'0 0.0
2014-Jun-26 16:34N 58°52' E 005°45'0 0.0
2014-Jun-26 15:33N 58°52' E 005°45'0 0.0
2014-Jun-26 14:34N 58°52' E 005°45'0 0.0
2014-Jun-26 13:33N 58°52' E 005°45'0 0.0
2014-Jun-26 12:33N 58°52' E 005°45'0 0.0
2014-Jun-26 11:33N 58°52' E 005°45'0 0.0
2014-Jun-26 10:33N 58°52' E 005°45'0 0.0
2014-Jun-26 09:33N 58°52' E 005°45'0 0.0
2014-Jun-26 08:34N 58°52' E 005°45'0 0.0
2014-Jun-26 07:33N 58°52' E 005°45'0 0.0
2014-Jun-26 06:34N 58°52' E 005°45'0 0.0
2014-Jun-26 05:33N 58°52' E 005°45'0 0.0
2014-Jun-26 04:33N 58°52' E 005°45'0 0.0
2014-Jun-26 03:33N 58°52' E 005°45'0 0.0
2014-Jun-26 02:33N 58°52' E 005°45'0 0.0
2014-Jun-26 01:33N 58°52' E 005°45'0 0.0
2014-Jun-26 00:34N 58°52' E 005°45'0 0.0
2014-Jun-25 23:33N 58°52' E 005°45'0 0.0
2014-Jun-25 22:33N 58°52' E 005°45'0 0.0
2014-Jun-25 21:33N 58°52' E 005°45'0 0.0
2014-Jun-25 20:33N 58°52' E 005°45'0 0.0
2014-Jun-25 19:33N 58°52' E 005°45'0 0.0
2014-Jun-25 18:33N 58°52' E 005°45'0 0.0
2014-Jun-25 17:33N 58°52' E 005°45'0 0.0
2014-Jun-25 16:33N 58°52' E 005°45'0 0.0
2014-Jun-25 15:33N 58°52' E 005°45'0 0.0
2014-Jun-25 14:33N 58°52' E 005°45'0 0.0
2014-Jun-25 13:33N 58°52' E 005°45'0 0.0
2014-Jun-25 12:33N 58°52' E 005°45'0 0.0
2014-Jun-25 11:33N 58°52' E 005°45'0 0.0
2014-Jun-25 10:33N 58°52' E 005°45'0 0.0
2014-Jun-25 09:33N 58°52' E 005°45'0 0.0
2014-Jun-25 08:33N 58°52' E 005°45'0 0.0
2014-Jun-25 07:33N 58°52' E 005°45'0 0.0
2014-Jun-25 06:33N 58°52' E 005°45'0 0.0
2014-Jun-25 05:33N 58°52' E 005°45'0 0.0
2014-Jun-25 04:33N 58°52' E 005°45'0 0.0
2014-Jun-25 03:33N 58°52' E 005°45'0 0.0
2014-Jun-25 02:33N 58°52' E 005°45'0 0.0
2014-Jun-25 01:33N 58°52' E 005°45'0 0.0
2014-Jun-25 00:34N 58°52' E 005°45'0 0.0
2014-Jun-24 23:33N 58°52' E 005°45'0 0.0
2014-Jun-24 22:33N 58°52' E 005°45'0 0.0
2014-Jun-24 21:33N 58°52' E 005°45'0 0.0
2014-Jun-24 20:33N 58°52' E 005°45'0 0.1
2014-Jun-24 19:33N 58°52' E 005°45'0 0.1
2014-Jun-24 18:33N 58°52' E 005°45'0 0.0
2014-Jun-24 17:33N 58°52' E 005°45'5 4.7
2014-Jun-24 16:33N 58°57' E 005°46'1 0.9
2014-Jun-24 15:31N 58°58' E 005°46'0 0.0
2014-Jun-24 14:31N 58°58' E 005°46'0 0.0
2014-Jun-24 13:28N 58°58' E 005°46'6 6.4
2014-Jun-24 12:33N 58°52' E 005°45'0 0.0
2014-Jun-24 11:33N 58°52' E 005°45'0 0.0
2014-Jun-24 10:33N 58°52' E 005°45'0 0.0
2014-Jun-24 09:33N 58°52' E 005°45'0 0.0
2014-Jun-24 08:33N 58°52' E 005°45'0 0.0
2014-Jun-24 07:33N 58°52' E 005°45'0 0.0
2014-Jun-24 06:33N 58°52' E 005°45'0 0.0
2014-Jun-24 05:33N 58°52' E 005°45'0 0.0
2014-Jun-24 04:33N 58°52' E 005°45'0 0.0
2014-Jun-24 03:33N 58°52' E 005°45'0 0.0
2014-Jun-24 02:33N 58°52' E 005°45'0 0.0
2014-Jun-24 01:33N 58°52' E 005°45'0 0.0
2014-Jun-24 00:33N 58°52' E 005°45'0 0.0
2014-Jun-23 23:33N 58°52' E 005°45'0 0.0
2014-Jun-23 22:33N 58°52' E 005°45'0 0.0
2014-Jun-23 21:33N 58°52' E 005°45'0 0.0
2014-Jun-23 20:33N 58°52' E 005°45'0 0.0
2014-Jun-23 19:33N 58°52' E 005°45'0 0.0
2014-Jun-23 18:33N 58°52' E 005°45'0 0.0
2014-Jun-23 17:33N 58°52' E 005°45'0 0.0
2014-Jun-23 16:33N 58°52' E 005°45'0 0.0
2014-Jun-23 15:33N 58°52' E 005°45'0 0.0
2014-Jun-23 14:33N 58°52' E 005°45'0 0.0
2014-Jun-23 12:33N 58°52' E 005°45'0 0.0
2014-Jun-23 11:33N 58°52' E 005°45'0 0.0
2014-Jun-23 10:33N 58°52' E 005°45'0 0.0
2014-Jun-23 09:33N 58°52' E 005°45'0 0.0
2014-Jun-23 08:33N 58°52' E 005°45'0 0.0
2014-Jun-23 07:33N 58°52' E 005°45'0 0.0
2014-Jun-23 06:33N 58°52' E 005°45'0 0.0
2014-Jun-23 05:33N 58°52' E 005°45'0 0.0
2014-Jun-23 04:33N 58°52' E 005°45'0 0.0
2014-Jun-23 03:33N 58°52' E 005°45'0 0.0
2014-Jun-23 02:33N 58°52' E 005°45'0 0.0
2014-Jun-23 01:33N 58°52' E 005°45'0 0.0
2014-Jun-23 00:33N 58°52' E 005°45'0 0.0
2014-Jun-22 23:33N 58°52' E 005°45'0 0.0
2014-Jun-22 22:33N 58°52' E 005°45'0 0.0
2014-Jun-22 21:33N 58°52' E 005°45'0 0.0
2014-Jun-22 20:33N 58°52' E 005°45'0 0.0
2014-Jun-22 19:33N 58°52' E 005°45'0 0.0
2014-Jun-22 18:33N 58°52' E 005°45'0 0.0
2014-Jun-22 17:33N 58°52' E 005°45'0 0.0
2014-Jun-22 16:33N 58°52' E 005°45'0 0.0
2014-Jun-22 15:33N 58°52' E 005°45'0 0.0
2014-Jun-22 14:33N 58°52' E 005°45'0 0.0
2014-Jun-22 13:33N 58°52' E 005°45'0 0.0
2014-Jun-22 12:33N 58°52' E 005°45'0 0.0
2014-Jun-22 11:33N 58°52' E 005°45'0 0.0
2014-Jun-22 10:33N 58°52' E 005°45'0 0.0
2014-Jun-22 09:33N 58°52' E 005°45'0 0.2
2014-Jun-22 08:33N 58°52' E 005°45'0 0.0
2014-Jun-22 07:33N 58°52' E 005°45'  

Dump ship's entire track history